createdAt,value
2018-09-21T00:00:57.264Z,89.30
2018-09-21T00:03:26.321Z,89.20
2018-09-21T00:05:54.662Z,89.30
2018-09-21T00:08:23.266Z,89.40
2018-09-21T00:10:52.086Z,89.50
2018-09-21T00:13:20.483Z,89.20
2018-09-21T00:15:48.841Z,89.20
2018-09-21T00:18:17.207Z,89.40
2018-09-21T00:20:45.849Z,89.50
2018-09-21T00:23:14.877Z,89.50
2018-09-21T00:25:43.312Z,89.70
2018-09-21T00:28:12.079Z,89.60
2018-09-21T00:30:40.430Z,89.90
2018-09-21T00:33:08.829Z,89.70
2018-09-21T00:35:37.168Z,89.90
2018-09-21T00:38:06.105Z,89.60
2018-09-21T00:40:34.457Z,89.80
2018-09-21T00:43:03.055Z,89.90
2018-09-21T00:45:31.405Z,90.00
2018-09-21T00:48:00.620Z,90.00
2018-09-21T00:50:28.951Z,90.00
2018-09-21T00:52:57.312Z,90.10
2018-09-21T00:55:25.653Z,90.10
2018-09-21T00:57:54.025Z,90.10
2018-09-21T01:00:22.417Z,90.10
2018-09-21T01:02:51.116Z,90.30
2018-09-21T01:05:19.511Z,90.30
2018-09-21T01:07:47.928Z,90.40
2018-09-21T01:10:16.282Z,90.50
2018-09-21T01:12:44.620Z,90.60
2018-09-21T01:15:13.088Z,90.70
2018-09-21T01:17:42.183Z,90.90
2018-09-21T01:20:10.544Z,90.90
2018-09-21T01:22:38.884Z,90.90
2018-09-21T01:25:07.332Z,91.00
2018-09-21T01:27:35.698Z,91.00
2018-09-21T01:30:04.038Z,91.10
2018-09-21T01:32:32.377Z,91.30
2018-09-21T01:35:00.726Z,91.40
2018-09-21T01:37:29.832Z,91.60
2018-09-21T01:39:58.167Z,91.60
2018-09-21T01:42:26.504Z,91.60
2018-09-21T01:44:54.840Z,91.50
2018-09-21T01:47:23.273Z,91.60
2018-09-21T01:49:51.590Z,91.60
2018-09-21T01:52:20.039Z,91.80
2018-09-21T01:54:48.364Z,91.80
2018-09-21T01:57:16.694Z,92.00
2018-09-21T01:59:45.045Z,92.10
2018-09-21T02:02:13.373Z,92.10
2018-09-21T02:04:41.726Z,92.30
2018-09-21T02:07:10.077Z,92.40
2018-09-21T02:09:39.187Z,92.60
2018-09-21T02:12:08.282Z,92.60
2018-09-21T02:14:36.714Z,92.60
2018-09-21T02:17:05.037Z,92.60
2018-09-21T02:19:33.370Z,92.80
2018-09-21T02:22:02.568Z,92.70
2018-09-21T02:24:30.906Z,92.80
2018-09-21T02:26:59.238Z,92.90
2018-09-21T02:29:27.632Z,92.90
2018-09-21T02:31:56.718Z,93.20
2018-09-21T02:34:25.250Z,93.20
2018-09-21T02:36:53.582Z,93.30
2018-09-21T02:39:21.926Z,93.40
2018-09-21T02:41:50.252Z,93.60
2018-09-21T02:44:19.374Z,93.70
2018-09-21T02:46:47.727Z,93.60
2018-09-21T02:49:16.079Z,93.80
2018-09-21T02:51:44.437Z,94.00
2018-09-21T02:54:12.772Z,94.00
2018-09-21T02:56:41.148Z,94.10
2018-09-21T02:59:09.496Z,94.20
2018-09-21T03:01:37.903Z,94.40
2018-09-21T03:04:07.006Z,94.60
2018-09-21T03:06:35.369Z,94.60
2018-09-21T03:09:03.723Z,94.70
2018-09-21T03:11:32.081Z,94.80
2018-09-21T03:14:00.413Z,95.00
2018-09-21T03:16:28.801Z,95.00
2018-09-21T03:18:57.123Z,95.30
2018-09-21T03:21:25.579Z,95.30
2018-09-21T03:23:53.887Z,95.40
2018-09-21T03:26:22.239Z,95.50
2018-09-21T03:28:50.595Z,95.60
2018-09-21T03:31:18.951Z,95.60
2018-09-21T03:33:47.289Z,95.70
2018-09-21T03:36:15.764Z,96.20
2018-09-21T03:38:44.099Z,95.80
2018-09-21T03:41:13.333Z,96.10
2018-09-21T03:43:42.280Z,96.00
2018-09-21T03:46:10.886Z,96.10
2018-09-21T03:48:39.281Z,96.10
2018-09-21T03:51:07.646Z,96.20
2018-09-21T03:53:35.979Z,96.30
2018-09-21T03:56:04.332Z,96.30
2018-09-21T03:58:32.683Z,96.40
2018-09-21T04:01:01.216Z,96.40
2018-09-21T04:03:29.553Z,96.50
2018-09-21T04:05:57.918Z,96.60
2018-09-21T04:08:26.254Z,96.60
2018-09-21T04:10:54.590Z,96.60
2018-09-21T04:13:22.939Z,96.70
2018-09-21T04:15:52.047Z,96.70
2018-09-21T04:18:21.146Z,96.80
2018-09-21T04:20:49.482Z,96.80
2018-09-21T04:23:17.920Z,96.80
2018-09-21T04:25:46.438Z,96.90
2018-09-21T04:28:14.764Z,96.90
2018-09-21T04:30:43.870Z,97.00
2018-09-21T04:33:12.973Z,97.10
2018-09-21T04:35:41.430Z,97.00
2018-09-21T04:38:10.661Z,97.20
2018-09-21T04:40:39.032Z,97.20
2018-09-21T04:43:07.358Z,97.30
2018-09-21T04:45:35.764Z,97.30
2018-09-21T04:48:04.096Z,97.40
2018-09-21T04:50:32.420Z,97.50
2018-09-21T04:53:01.590Z,97.60
2018-09-21T04:55:30.027Z,97.50
2018-09-21T04:57:58.440Z,97.60
2018-09-21T05:00:27.366Z,97.60
2018-09-21T05:02:56.560Z,97.70
2018-09-21T05:05:25.024Z,97.70
2018-09-21T05:07:54.086Z,97.50
2018-09-21T05:10:22.418Z,97.50
2018-09-21T05:12:50.766Z,97.80
2018-09-21T05:15:19.112Z,97.40
2018-09-21T05:17:47.598Z,97.20
2018-09-21T05:20:15.948Z,97.00
2018-09-21T05:22:45.072Z,96.70
2018-09-21T05:25:13.414Z,96.70
2018-09-21T05:27:42.568Z,96.60
2018-09-21T05:30:11.651Z,97.00
2018-09-21T05:32:40.014Z,96.60
2018-09-21T05:35:08.382Z,96.80
2018-09-21T05:37:36.704Z,96.50
2018-09-21T05:40:05.966Z,96.70
2018-09-21T05:42:34.402Z,96.50
2018-09-21T05:45:02.753Z,96.50
2018-09-21T05:47:32.865Z,96.40
2018-09-21T05:50:01.222Z,96.40
2018-09-21T05:52:29.560Z,96.50
2018-09-21T05:54:57.933Z,96.60
2018-09-21T05:57:26.276Z,96.60
2018-09-21T05:59:54.631Z,96.70
2018-09-21T06:02:23.768Z,96.70
2018-09-21T06:04:53.426Z,96.70
2018-09-21T06:07:22.534Z,96.70
2018-09-21T06:09:52.088Z,96.90
2018-09-21T06:12:20.439Z,96.80
2018-09-21T06:14:48.853Z,96.70
2018-09-21T06:17:17.176Z,96.60
2018-09-21T06:19:46.319Z,96.40
2018-09-21T06:22:14.622Z,96.40
2018-09-21T06:24:43.199Z,96.10
2018-09-21T06:27:11.498Z,96.00
2018-09-21T06:29:40.722Z,95.90
2018-09-21T06:32:09.147Z,95.70
2018-09-21T06:34:37.473Z,95.70
2018-09-21T06:37:06.593Z,95.30
2018-09-21T06:39:34.915Z,95.30
2018-09-21T06:42:03.265Z,94.90
2018-09-21T06:44:32.310Z,94.80
2018-09-21T06:47:00.650Z,94.60
2018-09-21T06:49:28.995Z,94.50
2018-09-21T06:51:57.375Z,94.20
2018-09-21T06:54:25.709Z,94.10
2018-09-21T06:56:54.057Z,93.90
2018-09-21T06:59:22.390Z,93.80
2018-09-21T07:01:50.837Z,93.50
2018-09-21T07:04:19.237Z,93.10
2018-09-21T07:06:48.369Z,92.90
2018-09-21T07:09:16.757Z,92.90
2018-09-21T07:11:45.105Z,92.80
2018-09-21T07:14:13.462Z,92.60
2018-09-21T07:16:42.712Z,92.10
2018-09-21T07:19:11.151Z,91.80
2018-09-21T07:21:40.381Z,91.70
2018-09-21T07:24:08.758Z,91.70
2018-09-21T07:26:37.219Z,91.60
2018-09-21T07:29:05.511Z,91.70
2018-09-21T07:31:33.859Z,91.50
2018-09-21T07:34:02.292Z,91.40
2018-09-21T07:36:30.641Z,91.30
2018-09-21T07:38:59.819Z,91.40
2018-09-21T07:41:28.777Z,91.30
2018-09-21T07:43:57.103Z,91.20
2018-09-21T07:46:26.267Z,91.20
2018-09-21T07:48:54.684Z,91.20
2018-09-21T07:51:23.115Z,91.20
2018-09-21T07:53:51.427Z,91.30
2018-09-21T07:56:20.284Z,91.30
2018-09-21T07:58:49.191Z,91.30
2018-09-21T08:01:18.605Z,91.20
2018-09-21T08:03:46.939Z,91.20
2018-09-21T08:06:15.284Z,91.10
2018-09-21T08:08:44.380Z,90.80
2018-09-21T08:11:13.629Z,90.70
2018-09-21T08:13:41.985Z,90.70
2018-09-21T08:16:11.313Z,90.70
2018-09-21T08:18:39.632Z,90.70
2018-09-21T08:21:08.763Z,90.20
2018-09-21T08:23:37.089Z,90.20
2018-09-21T08:26:05.419Z,90.10
2018-09-21T08:28:33.787Z,90.10
2018-09-21T08:31:02.187Z,90.00
2018-09-21T08:33:30.549Z,89.40
2018-09-21T08:35:58.874Z,89.30
2018-09-21T08:38:27.220Z,89.20
2018-09-21T08:40:55.577Z,89.50
2018-09-21T08:43:24.797Z,88.90
2018-09-21T08:45:53.129Z,88.90
2018-09-21T08:48:21.471Z,88.30
2018-09-21T08:50:50.451Z,88.30
2018-09-21T08:53:18.807Z,88.50
2018-09-21T08:55:47.135Z,87.60
2018-09-21T08:58:15.501Z,88.00
2018-09-21T09:00:43.847Z,87.10
2018-09-21T09:03:12.376Z,87.20
2018-09-21T09:05:40.641Z,86.50
2018-09-21T09:08:09.011Z,86.70
2018-09-21T09:10:37.391Z,86.70
2018-09-21T09:13:05.741Z,86.50
2018-09-21T09:15:34.192Z,86.60
2018-09-21T09:18:02.551Z,87.00
2018-09-21T09:20:31.843Z,86.60
2018-09-21T09:23:00.259Z,87.30
2018-09-21T09:25:28.649Z,87.70
2018-09-21T09:27:57.015Z,86.80
2018-09-21T09:30:25.779Z,87.30
2018-09-21T09:32:54.306Z,86.90
2018-09-21T09:35:22.635Z,86.20
2018-09-21T09:37:53.017Z,86.00
2018-09-21T09:40:22.353Z,85.70
2018-09-21T09:42:50.725Z,85.60
2018-09-21T09:45:19.084Z,86.30
2018-09-21T09:47:47.460Z,86.30
2018-09-21T09:50:15.977Z,86.40
2018-09-21T09:52:44.310Z,85.70
2018-09-21T09:55:13.422Z,86.00
2018-09-21T09:57:41.768Z,86.00
2018-09-21T10:00:10.108Z,85.90
2018-09-21T10:02:38.560Z,85.40
2018-09-21T10:10:49.482Z,85.00
2018-09-21T10:13:17.801Z,85.50
2018-09-21T10:15:46.200Z,86.10
2018-09-21T10:18:15.350Z,86.60
2018-09-21T10:20:43.761Z,85.70
2018-09-21T10:23:12.032Z,85.70
2018-09-21T10:25:40.407Z,85.90
2018-09-21T10:28:08.960Z,85.40
2018-09-21T10:30:37.172Z,85.40
2018-09-21T10:33:05.518Z,85.60
2018-09-21T10:35:33.995Z,85.10
2018-09-21T10:38:02.256Z,85.10
2018-09-21T10:40:30.661Z,85.20
2018-09-21T10:43:00.738Z,85.10
2018-09-21T10:45:29.029Z,85.10
2018-09-21T10:47:57.406Z,85.30
2018-09-21T10:50:25.813Z,85.30
2018-09-21T10:52:54.180Z,85.60
2018-09-21T10:55:22.517Z,86.20
2018-09-21T10:57:51.617Z,87.80
2018-09-21T11:00:20.746Z,90.10
2018-09-21T11:02:49.068Z,89.70
2018-09-21T11:05:17.491Z,90.30
2018-09-21T11:07:46.837Z,90.50
2018-09-21T11:10:16.230Z,91.40
2018-09-21T11:12:44.721Z,92.80
2018-09-21T11:15:13.623Z,94.50
2018-09-21T11:17:42.166Z,96.30
2018-09-21T11:20:10.501Z,98.50
2018-09-21T11:22:39.584Z,99.90
2018-09-21T11:25:07.906Z,99.90
2018-09-21T11:27:36.301Z,99.90
2018-09-21T11:30:04.773Z,99.90
2018-09-21T11:32:33.154Z,99.90
2018-09-21T11:35:01.488Z,99.90
2018-09-21T11:37:30.021Z,99.90
2018-09-21T11:39:58.525Z,99.90
2018-09-21T11:42:26.835Z,99.90
2018-09-21T11:44:55.255Z,99.90
2018-09-21T11:47:23.739Z,99.90
2018-09-21T11:49:51.939Z,99.90
2018-09-21T11:52:20.504Z,99.90
2018-09-21T11:54:49.586Z,99.90
2018-09-21T11:57:17.920Z,99.90
2018-09-21T11:59:46.240Z,99.90
2018-09-21T12:02:15.375Z,99.90
2018-09-21T12:04:43.823Z,99.90
2018-09-21T12:07:12.146Z,99.90
2018-09-21T12:09:41.248Z,99.90
2018-09-21T12:12:09.649Z,99.90
2018-09-21T12:14:38.071Z,99.90
2018-09-21T12:17:06.482Z,99.90
2018-09-21T12:19:34.746Z,99.90
2018-09-21T12:22:03.120Z,99.90
2018-09-21T12:24:31.428Z,99.90
2018-09-21T12:26:59.862Z,99.90
2018-09-21T12:29:28.226Z,99.90
2018-09-21T12:31:57.535Z,99.90
2018-09-21T12:34:25.890Z,99.90
2018-09-21T12:36:54.280Z,99.90
2018-09-21T12:39:23.374Z,99.90
2018-09-21T12:41:52.461Z,99.90
2018-09-21T12:44:21.564Z,99.90
2018-09-21T12:46:50.667Z,99.90
2018-09-21T12:49:19.821Z,99.90
2018-09-21T12:51:48.152Z,99.90
2018-09-21T12:54:16.505Z,99.90
2018-09-21T12:56:44.852Z,99.90
2018-09-21T12:59:13.948Z,99.90
2018-09-21T13:01:42.370Z,99.90
2018-09-21T13:04:10.698Z,99.90
2018-09-21T13:06:39.304Z,99.90
2018-09-21T13:09:08.416Z,99.90
2018-09-21T13:11:36.758Z,99.90
2018-09-21T13:14:05.110Z,99.90
2018-09-21T13:16:33.442Z,99.90
2018-09-21T13:19:01.936Z,99.90
2018-09-21T13:21:30.272Z,99.90
2018-09-21T13:23:58.611Z,99.90
2018-09-21T13:26:27.694Z,99.90
2018-09-21T13:28:56.046Z,99.90
2018-09-21T13:31:24.380Z,99.90
2018-09-21T13:33:52.740Z,99.90
2018-09-21T13:36:21.838Z,99.90
2018-09-21T13:38:50.958Z,99.90
2018-09-21T13:41:19.297Z,99.90
2018-09-21T13:43:47.664Z,99.90
2018-09-21T13:46:16.021Z,99.90
2018-09-21T13:48:44.354Z,99.90
2018-09-21T13:51:13.265Z,99.90
2018-09-21T13:53:41.583Z,99.90
2018-09-21T13:56:09.941Z,99.90
2018-09-21T13:58:38.353Z,99.90
2018-09-21T14:01:06.763Z,99.90
2018-09-21T14:03:35.103Z,99.90
2018-09-21T14:06:03.436Z,99.90
2018-09-21T14:08:31.768Z,99.90
2018-09-21T14:11:00.124Z,99.90
2018-09-21T14:13:28.465Z,99.90
2018-09-21T14:15:56.811Z,99.90
2018-09-21T14:18:25.155Z,99.90
2018-09-21T14:20:53.500Z,99.90
2018-09-21T14:23:21.861Z,99.90
2018-09-21T14:25:50.978Z,99.90
2018-09-21T14:28:19.364Z,99.90
2018-09-21T14:30:47.756Z,99.90
2018-09-21T14:33:16.079Z,99.90
2018-09-21T14:35:44.786Z,99.90
2018-09-21T14:38:13.826Z,99.90
2018-09-21T14:40:42.258Z,99.90
2018-09-21T14:43:11.561Z,99.90
2018-09-21T14:45:39.904Z,99.90
2018-09-21T14:48:08.334Z,99.90
2018-09-21T14:50:36.819Z,99.90
2018-09-21T14:53:05.192Z,99.90
2018-09-21T14:55:33.611Z,99.90
2018-09-21T14:58:02.596Z,99.90
2018-09-21T15:00:30.929Z,99.90
2018-09-21T15:03:00.053Z,99.90
2018-09-21T15:05:28.380Z,99.90
2018-09-21T15:07:56.779Z,99.90
2018-09-21T15:13:00.880Z,99.90
2018-09-21T15:15:29.270Z,99.90
2018-09-21T15:17:57.622Z,99.90
2018-09-21T15:20:26.128Z,99.90
2018-09-21T15:22:54.446Z,99.90
2018-09-21T15:25:22.970Z,99.90
2018-09-21T15:27:51.315Z,99.90
2018-09-21T15:30:19.753Z,99.90
2018-09-21T15:32:48.102Z,99.90
2018-09-21T15:35:16.560Z,99.90
2018-09-21T15:37:45.127Z,99.90
2018-09-21T15:40:14.482Z,99.90
2018-09-21T15:42:42.860Z,99.90
2018-09-21T15:45:11.256Z,99.90
2018-09-21T15:47:39.819Z,99.90
2018-09-21T15:50:08.200Z,99.90
2018-09-21T15:52:36.706Z,99.90
2018-09-21T15:55:05.040Z,99.90
2018-09-21T15:57:33.375Z,99.90
2018-09-21T16:00:02.486Z,99.90
2018-09-21T16:02:31.702Z,99.90
2018-09-21T16:05:00.048Z,99.90
2018-09-21T16:07:28.368Z,99.90
2018-09-21T16:09:56.769Z,99.90
2018-09-21T16:12:25.074Z,98.30
2018-09-21T16:14:53.512Z,97.90
2018-09-21T16:17:21.838Z,95.70
2018-09-21T16:19:50.359Z,95.60
2018-09-21T16:22:18.685Z,94.50
2018-09-21T16:24:47.098Z,92.80
2018-09-21T16:27:16.191Z,92.90
2018-09-21T16:29:45.282Z,92.50
2018-09-21T16:32:13.632Z,92.40
2018-09-21T16:34:41.965Z,91.80
2018-09-21T16:37:10.402Z,91.80
2018-09-21T16:39:38.720Z,91.50
2018-09-21T16:42:07.297Z,91.20
2018-09-21T16:44:36.387Z,92.00
2018-09-21T16:47:05.100Z,92.00
2018-09-21T16:49:33.418Z,91.70
2018-09-21T16:52:01.781Z,92.00
2018-09-21T16:54:30.135Z,92.50
2018-09-21T16:56:58.455Z,92.80
2018-09-21T16:59:26.973Z,93.20
2018-09-21T17:01:56.072Z,93.70
2018-09-21T17:04:25.229Z,93.70
2018-09-21T17:06:53.682Z,93.70
2018-09-21T17:09:22.005Z,94.30
2018-09-21T17:11:50.330Z,94.70
2018-09-21T17:14:19.760Z,95.00
2018-09-21T17:16:48.087Z,95.00
2018-09-21T17:19:17.331Z,95.10
2018-09-21T17:21:46.158Z,95.10
2018-09-21T17:24:14.482Z,95.50
2018-09-21T17:26:42.908Z,95.30
2018-09-21T17:29:11.219Z,95.20
2018-09-21T17:31:40.657Z,94.90
2018-09-21T17:34:08.872Z,94.80
2018-09-21T17:36:37.218Z,94.80
2018-09-21T17:39:05.680Z,95.20
2018-09-21T17:41:34.032Z,95.00
2018-09-21T17:44:02.349Z,95.00
2018-09-21T17:46:30.693Z,95.10
2018-09-21T17:48:59.054Z,95.20
2018-09-21T17:51:28.310Z,95.10
2018-09-21T17:53:56.626Z,95.00
2018-09-21T17:56:25.128Z,95.00
2018-09-21T17:58:54.236Z,95.40
2018-09-21T18:01:22.602Z,95.40
2018-09-21T18:03:51.098Z,95.90
2018-09-21T18:06:19.480Z,96.10
2018-09-21T18:08:47.853Z,96.30
2018-09-21T18:11:16.220Z,95.50
2018-09-21T18:13:45.324Z,94.50
2018-09-21T18:16:14.555Z,94.10
2018-09-21T18:18:42.911Z,94.00
2018-09-21T18:21:11.282Z,93.20
2018-09-21T18:23:39.594Z,92.90
2018-09-21T18:26:08.095Z,92.80
2018-09-21T18:28:36.395Z,92.30
2018-09-21T18:31:04.719Z,92.10
2018-09-21T18:33:33.084Z,91.70
2018-09-21T18:36:01.542Z,91.10
2018-09-21T18:38:29.850Z,90.20
2018-09-21T18:40:58.248Z,89.20
2018-09-21T18:43:26.528Z,88.40
2018-09-21T18:45:54.910Z,87.70
2018-09-21T18:48:23.250Z,87.60
2018-09-21T18:50:51.604Z,87.30
2018-09-21T18:53:20.004Z,87.90
2018-09-21T18:55:48.446Z,87.60
2018-09-21T18:58:16.775Z,88.10
2018-09-21T19:00:45.152Z,88.50
2018-09-21T19:03:13.796Z,89.40
2018-09-21T19:05:42.380Z,89.30
2018-09-21T19:08:10.714Z,89.50
2018-09-21T19:10:39.289Z,89.80
2018-09-21T19:13:07.623Z,89.70
2018-09-21T19:15:36.102Z,90.10
2018-09-21T19:18:04.464Z,90.10
2018-09-21T19:20:32.808Z,90.30
2018-09-21T19:23:01.474Z,90.20
2018-09-21T19:25:31.890Z,90.60
2018-09-21T19:28:00.718Z,90.60
2018-09-21T19:30:29.660Z,90.90
2018-09-21T19:32:58.126Z,91.00
2018-09-21T19:35:26.429Z,90.90
2018-09-21T19:37:55.005Z,91.00
2018-09-21T19:40:23.556Z,91.00
2018-09-21T19:42:52.107Z,91.00
2018-09-21T19:45:21.736Z,91.00
2018-09-21T19:47:50.715Z,90.80
2018-09-21T19:50:19.223Z,90.80
2018-09-21T19:52:47.733Z,90.70
2018-09-21T19:55:16.203Z,90.60
2018-09-21T19:57:45.408Z,90.40
2018-09-21T20:00:13.834Z,90.50
2018-09-21T20:02:42.462Z,90.60
2018-09-21T20:05:10.969Z,90.30
2018-09-21T20:07:39.392Z,90.20
2018-09-21T20:10:08.084Z,90.70
2018-09-21T20:12:36.977Z,92.20
2018-09-21T20:15:05.558Z,93.30
2018-09-21T20:17:33.932Z,94.40
2018-09-21T20:20:02.320Z,95.30
2018-09-21T20:22:30.770Z,96.00
2018-09-21T20:24:59.192Z,97.00
2018-09-21T20:27:28.037Z,97.90
2018-09-21T20:29:57.188Z,99.40
2018-09-21T20:32:31.562Z,99.40
2018-09-21T20:34:59.892Z,99.90
2018-09-21T20:37:28.229Z,99.90
2018-09-21T20:39:57.374Z,99.90
2018-09-21T20:42:25.658Z,99.90
2018-09-21T20:44:54.463Z,99.90
2018-09-21T20:47:23.572Z,99.90
2018-09-21T20:49:52.751Z,99.90
2018-09-21T20:52:21.114Z,99.90
2018-09-21T20:54:49.466Z,99.90
2018-09-21T20:57:17.800Z,99.90
2018-09-21T20:59:46.572Z,99.90
2018-09-21T21:02:14.882Z,99.90
2018-09-21T21:04:43.214Z,99.90
2018-09-21T21:07:11.608Z,99.90
2018-09-21T21:09:39.950Z,99.90
2018-09-21T21:12:08.302Z,99.90
2018-09-21T21:14:36.636Z,99.90
2018-09-21T21:17:04.973Z,99.90
2018-09-21T21:19:35.616Z,99.90
2018-09-21T21:22:03.950Z,99.90
2018-09-21T21:24:33.232Z,99.90
2018-09-21T21:27:01.562Z,99.90
2018-09-21T21:29:29.910Z,99.90
2018-09-21T21:31:58.420Z,99.90
2018-09-21T21:34:26.774Z,99.90
2018-09-21T21:36:55.894Z,99.90
2018-09-21T21:39:24.833Z,99.90
2018-09-21T21:41:53.274Z,99.90
2018-09-21T21:44:21.708Z,99.90
2018-09-21T21:46:50.032Z,99.90
2018-09-21T21:49:18.401Z,99.90
2018-09-21T21:51:46.745Z,99.90
2018-09-21T21:54:15.180Z,99.90
2018-09-21T21:56:43.558Z,99.90
2018-09-21T21:59:11.921Z,99.90
2018-09-21T22:01:43.819Z,99.90
2018-09-21T22:04:12.283Z,99.90
2018-09-21T22:06:40.622Z,99.90
2018-09-21T22:09:09.031Z,99.90
2018-09-21T22:11:37.382Z,99.90
2018-09-21T22:14:06.480Z,99.90
2018-09-21T22:16:34.860Z,99.90
2018-09-21T22:19:04.806Z,99.90
2018-09-21T22:21:34.180Z,99.90
2018-09-21T22:24:02.560Z,99.90
2018-09-21T22:26:30.890Z,99.90
2018-09-21T22:28:59.933Z,99.90
2018-09-21T22:31:29.241Z,99.90
2018-09-21T22:33:57.589Z,99.90
2018-09-21T22:36:26.001Z,99.90
2018-09-21T22:38:54.332Z,99.90
2018-09-21T22:41:23.951Z,99.90
2018-09-21T22:43:53.178Z,99.90
2018-09-21T22:46:21.549Z,99.90
2018-09-21T22:48:50.144Z,99.90
2018-09-21T22:51:18.488Z,99.90
2018-09-21T22:53:47.132Z,99.90
2018-09-21T22:56:16.289Z,99.90
2018-09-21T22:58:44.877Z,99.90
2018-09-21T23:01:13.188Z,99.90
2018-09-21T23:03:41.966Z,99.90
2018-09-21T23:06:11.554Z,99.90
2018-09-21T23:08:41.253Z,99.90
2018-09-21T23:11:09.670Z,99.90
2018-09-21T23:13:38.042Z,99.90
2018-09-21T23:16:06.413Z,99.90
2018-09-21T23:18:34.847Z,99.90
2018-09-21T23:21:03.257Z,99.90
2018-09-21T23:23:31.598Z,99.90
2018-09-21T23:26:00.874Z,99.90
2018-09-21T23:28:29.196Z,99.90
2018-09-21T23:30:57.538Z,99.90
2018-09-21T23:33:25.897Z,99.90
2018-09-21T23:35:55.040Z,99.90
2018-09-21T23:38:23.465Z,99.90
2018-09-21T23:40:52.574Z,99.90
2018-09-21T23:43:21.577Z,99.90
2018-09-21T23:45:49.886Z,99.90
2018-09-21T23:48:18.233Z,99.90
2018-09-21T23:50:46.571Z,99.90
2018-09-21T23:53:15.080Z,99.90
2018-09-21T23:55:44.160Z,99.90
2018-09-21T23:58:13.276Z,99.90
